Geneseo, Illinois
Current Conditions -  °F | °C
As of 9:52 PM on Wednesday 26 Nov 2014 (Local Time) from KMLI Reporting Station
Overcast Overcast  
Wind Chill: 27°   Ceiling: 1900
Heat Index: 27°   Visibility: 7mi
Dew Point: 20°   Wind: 3mph
Humidity: 75%   Direction: 10°N
Pressure: 30.24"   Gusts: NA
Location:  41.45°N, 90.16°W
Report Text: KMLI 270352Z AUTO 01003KT 7SM BKN019 BKN075 OVC090 M03/M07 A3024 RMK AO2 SLP247 T10281067 $
Loading
Personal Weather Stations






























Interactive Weather Map New forecast layout! Learn more

10-Day Weather Forecast

Advertisements
Track Severe Weather on mobile